createdAt,value
2023-03-17T00:00:39.108Z,1.97
2023-03-17T00:03:07.760Z,1.80
2023-03-17T00:05:37.805Z,1.30
2023-03-17T00:08:08.416Z,1.43
2023-03-17T00:10:36.811Z,1.40
2023-03-17T00:13:05.061Z,2.00
2023-03-17T00:15:33.271Z,1.77
2023-03-17T00:18:03.500Z,1.50
2023-03-17T00:20:33.270Z,1.67
2023-03-17T00:23:04.656Z,1.47
2023-03-17T00:25:34.294Z,1.83
2023-03-17T00:28:03.227Z,1.50
2023-03-17T00:30:31.811Z,1.37
2023-03-17T00:33:00.503Z,1.70
2023-03-17T00:35:29.488Z,1.60
2023-03-17T00:37:59.499Z,1.40
2023-03-17T00:40:31.072Z,1.80
2023-03-17T00:43:00.943Z,1.70
2023-03-17T00:45:29.160Z,1.40
2023-03-17T00:47:57.689Z,1.80
2023-03-17T00:50:28.154Z,1.43
2023-03-17T00:52:57.665Z,1.90
2023-03-17T00:55:26.535Z,1.30
2023-03-17T00:57:56.517Z,1.60
2023-03-17T01:00:26.353Z,1.67
2023-03-17T01:02:55.081Z,1.37
2023-03-17T01:05:23.663Z,1.40
2023-03-17T01:07:53.683Z,1.13
2023-03-17T01:10:23.824Z,1.87
2023-03-17T01:12:52.646Z,1.80
2023-03-17T01:15:22.828Z,1.60
2023-03-17T01:17:51.436Z,1.60
2023-03-17T01:20:21.678Z,1.27
2023-03-17T01:22:50.523Z,1.83
2023-03-17T01:25:19.410Z,1.47
2023-03-17T01:27:48.510Z,1.50
2023-03-17T01:30:26.002Z,2.47
2023-03-17T01:32:54.323Z,2.40
2023-03-17T01:35:22.613Z,1.40
2023-03-17T01:37:50.990Z,1.40
2023-03-17T01:40:20.495Z,1.40
2023-03-17T01:42:50.881Z,1.73
2023-03-17T01:45:38.519Z,1.93
2023-03-17T01:48:09.072Z,1.10
2023-03-17T01:50:37.670Z,1.50
2023-03-17T01:53:06.130Z,1.90
2023-03-17T01:55:34.365Z,1.70
2023-03-17T01:58:02.916Z,1.80
2023-03-17T02:00:32.577Z,1.90
2023-03-17T02:03:00.948Z,1.47
2023-03-17T02:05:32.623Z,1.67
2023-03-17T02:08:01.198Z,1.90
2023-03-17T02:10:29.720Z,1.40
2023-03-17T02:13:00.331Z,1.60
2023-03-17T02:15:38.927Z,1.70
2023-03-17T02:18:07.734Z,1.90
2023-03-17T02:20:54.382Z,2.20
2023-03-17T02:23:24.113Z,1.43
2023-03-17T02:25:53.299Z,1.70
2023-03-17T02:28:23.895Z,1.90
2023-03-17T02:31:00.396Z,1.80
2023-03-17T02:33:28.844Z,1.63
2023-03-17T02:35:57.585Z,1.80
2023-03-17T02:38:27.447Z,2.00
2023-03-17T02:40:55.957Z,1.70
2023-03-17T02:43:24.214Z,1.80
2023-03-17T02:45:52.470Z,2.20
2023-03-17T02:48:22.087Z,1.47
2023-03-17T02:50:50.342Z,1.73
2023-03-17T02:53:18.557Z,1.87
2023-03-17T02:55:48.149Z,1.87
2023-03-17T02:58:16.537Z,1.87
2023-03-17T03:00:45.923Z,2.40
2023-03-17T03:03:14.114Z,2.13
2023-03-17T03:05:42.729Z,2.23
2023-03-17T03:08:11.118Z,1.83
2023-03-17T03:10:39.289Z,1.83
2023-03-17T03:13:08.951Z,1.53
2023-03-17T03:15:37.427Z,1.63
2023-03-17T03:18:05.900Z,2.13
2023-03-17T03:20:34.128Z,1.47
2023-03-17T03:23:02.414Z,1.50
2023-03-17T03:25:30.641Z,1.70
2023-03-17T03:27:58.824Z,1.80
2023-03-17T03:30:28.903Z,2.03
2023-03-17T03:32:57.364Z,2.10
2023-03-17T03:35:25.724Z,1.67
2023-03-17T03:37:53.959Z,2.00
2023-03-17T03:40:22.316Z,2.20
2023-03-17T03:42:50.537Z,1.40
2023-03-17T03:45:18.878Z,1.90
2023-03-17T03:47:48.442Z,2.00
2023-03-17T03:50:16.751Z,2.10
2023-03-17T03:52:45.176Z,2.00
2023-03-17T03:55:13.392Z,2.60
2023-03-17T03:57:41.670Z,1.93
2023-03-17T04:00:11.168Z,1.80
2023-03-17T04:02:39.584Z,2.30
2023-03-17T04:05:09.727Z,2.17
2023-03-17T04:07:37.947Z,2.20
2023-03-17T04:10:07.226Z,2.10
2023-03-17T04:12:35.459Z,1.97
2023-03-17T04:15:04.411Z,2.50
2023-03-17T04:17:32.699Z,2.03
2023-03-17T04:20:00.945Z,2.27
2023-03-17T04:22:30.693Z,1.60
2023-03-17T04:24:58.898Z,2.23
2023-03-17T04:27:27.246Z,2.17
2023-03-17T04:29:55.520Z,1.87
2023-03-17T04:32:26.026Z,1.50
2023-03-17T04:34:55.878Z,2.10
2023-03-17T04:37:24.134Z,2.53
2023-03-17T04:39:55.115Z,2.00
2023-03-17T04:42:23.386Z,2.10
2023-03-17T04:44:51.575Z,2.00
2023-03-17T04:47:19.784Z,1.90
2023-03-17T04:49:47.963Z,1.73
2023-03-17T04:52:16.201Z,1.70
2023-03-17T04:54:45.476Z,2.03
2023-03-17T04:57:15.217Z,2.30
2023-03-17T04:59:43.496Z,1.87
2023-03-17T05:02:11.777Z,2.03
2023-03-17T05:04:40.548Z,1.93
2023-03-17T05:07:08.813Z,2.10
2023-03-17T05:09:37.112Z,1.80
2023-03-17T05:12:05.789Z,1.90
2023-03-17T05:14:35.421Z,1.90
2023-03-17T05:17:03.708Z,2.10
2023-03-17T05:19:32.023Z,1.90
2023-03-17T05:22:00.514Z,2.60
2023-03-17T05:24:28.739Z,2.10
2023-03-17T05:26:56.925Z,2.07
2023-03-17T05:29:25.175Z,2.47
2023-03-17T05:31:54.900Z,2.57
2023-03-17T05:34:23.170Z,2.30
2023-03-17T05:36:51.391Z,2.47
2023-03-17T05:39:19.647Z,2.10
2023-03-17T05:41:48.068Z,2.00
2023-03-17T05:44:16.433Z,2.00
2023-03-17T05:46:44.708Z,2.13
2023-03-17T05:49:14.283Z,2.30
2023-03-17T05:51:42.935Z,2.33
2023-03-17T05:54:11.259Z,2.23
2023-03-17T05:56:40.259Z,2.17
2023-03-17T05:59:09.422Z,2.07
2023-03-17T06:01:37.791Z,1.90
2023-03-17T06:04:06.048Z,2.47
2023-03-17T06:06:35.823Z,2.30
2023-03-17T06:09:04.455Z,2.10
2023-03-17T06:11:32.654Z,2.00
2023-03-17T06:14:01.729Z,2.00
2023-03-17T06:16:33.158Z,2.20
2023-03-17T06:19:02.306Z,2.23
2023-03-17T06:21:31.129Z,2.80
2023-03-17T06:24:00.849Z,2.33
2023-03-17T06:26:29.113Z,1.83
2023-03-17T06:28:57.476Z,2.20
2023-03-17T06:31:26.470Z,2.40
2023-03-17T06:33:54.861Z,2.30
2023-03-17T06:36:23.292Z,2.40
2023-03-17T06:38:51.608Z,2.33
2023-03-17T06:41:21.262Z,2.47
2023-03-17T06:43:49.734Z,2.47
2023-03-17T06:46:18.083Z,2.97
2023-03-17T06:48:46.595Z,2.20
2023-03-17T06:51:14.819Z,2.60
2023-03-17T06:53:43.080Z,2.17
2023-03-17T06:56:23.472Z,2.00
2023-03-17T06:58:56.907Z,2.17
2023-03-17T07:01:25.322Z,2.47
2023-03-17T07:03:53.611Z,2.37
2023-03-17T07:06:23.237Z,2.30
2023-03-17T07:08:52.376Z,2.40
2023-03-17T07:11:20.664Z,2.40
2023-03-17T07:13:48.844Z,2.77
2023-03-17T07:16:21.005Z,2.80
2023-03-17T07:18:50.533Z,2.60
2023-03-17T07:21:18.880Z,2.13
2023-03-17T07:23:47.831Z,2.43
2023-03-17T07:26:16.058Z,2.13
2023-03-17T07:28:44.664Z,1.93
2023-03-17T07:31:14.466Z,2.47
2023-03-17T07:33:44.140Z,1.90
2023-03-17T07:36:13.100Z,2.13
2023-03-17T07:38:41.669Z,2.27
2023-03-17T07:41:10.957Z,1.93
2023-03-17T07:43:39.408Z,2.50
2023-03-17T07:46:08.559Z,2.80
2023-03-17T07:48:40.952Z,3.10
2023-03-17T07:51:12.836Z,2.87
2023-03-17T07:53:41.633Z,1.90
2023-03-17T07:56:10.327Z,2.67
2023-03-17T07:58:38.548Z,2.70
2023-03-17T08:01:08.473Z,1.70
2023-03-17T08:03:38.155Z,3.07
2023-03-17T08:06:08.585Z,2.07
2023-03-17T08:08:38.791Z,2.43
2023-03-17T08:11:07.642Z,2.60
2023-03-17T08:13:36.278Z,2.80
2023-03-17T08:16:04.551Z,2.37
2023-03-17T08:18:32.879Z,2.60
2023-03-17T08:21:01.962Z,4.30
2023-03-17T08:23:31.051Z,2.10
2023-03-17T08:26:01.569Z,2.67
2023-03-17T08:28:29.820Z,2.30
2023-03-17T08:31:10.380Z,2.97
2023-03-17T08:33:40.600Z,2.53
2023-03-17T08:36:10.432Z,2.50
2023-03-17T08:38:38.925Z,2.70
2023-03-17T08:41:09.320Z,2.70
2023-03-17T08:43:38.696Z,2.40
2023-03-17T08:46:08.470Z,2.40
2023-03-17T08:48:37.661Z,2.30
2023-03-17T08:51:06.920Z,2.67
2023-03-17T08:53:35.480Z,3.50
2023-03-17T08:56:05.458Z,2.00
2023-03-17T08:58:35.525Z,3.10
2023-03-17T09:01:04.609Z,2.40
2023-03-17T09:03:33.702Z,2.43
2023-03-17T09:06:04.555Z,2.40
2023-03-17T09:08:32.853Z,2.13
2023-03-17T09:11:01.092Z,2.27
2023-03-17T09:13:29.488Z,2.30
2023-03-17T09:15:59.778Z,1.87
2023-03-17T09:18:28.232Z,3.00
2023-03-17T09:20:56.438Z,2.10
2023-03-17T09:23:24.675Z,2.07
2023-03-17T09:25:53.137Z,2.07
2023-03-17T09:28:21.385Z,2.70
2023-03-17T09:30:49.853Z,2.80
2023-03-17T09:33:19.468Z,2.40
2023-03-17T09:35:48.201Z,2.33
2023-03-17T09:38:17.096Z,2.37
2023-03-17T09:40:48.363Z,3.40
2023-03-17T09:43:24.801Z,2.10
2023-03-17T09:45:53.295Z,2.37
2023-03-17T09:48:31.251Z,2.40
2023-03-17T09:51:00.178Z,2.23
2023-03-17T09:53:33.995Z,1.93
2023-03-17T09:56:04.756Z,2.90
2023-03-17T09:58:33.978Z,2.37
2023-03-17T10:01:03.273Z,2.07
2023-03-17T10:03:32.989Z,2.37
2023-03-17T10:06:12.764Z,2.70
2023-03-17T10:08:44.733Z,2.17
2023-03-17T10:11:15.871Z,2.27
2023-03-17T10:13:50.453Z,2.33
2023-03-17T10:16:20.728Z,2.40
2023-03-17T10:18:53.927Z,2.60
2023-03-17T10:21:24.300Z,2.50
2023-03-17T10:23:52.715Z,2.23
2023-03-17T10:26:27.904Z,2.03
2023-03-17T10:28:56.999Z,2.30
2023-03-17T10:31:29.075Z,2.27
2023-03-17T10:34:00.579Z,2.10
2023-03-17T10:36:36.352Z,2.10
2023-03-17T10:39:06.949Z,2.10
2023-03-17T10:41:37.087Z,2.23
2023-03-17T10:44:09.894Z,2.63
2023-03-17T10:46:40.307Z,1.90
2023-03-17T10:49:10.968Z,2.20
2023-03-17T10:51:40.609Z,2.17
2023-03-17T10:54:10.525Z,2.07
2023-03-17T10:56:39.667Z,2.17
2023-03-17T10:59:09.392Z,2.10
2023-03-17T11:01:41.374Z,1.70
2023-03-17T11:04:24.419Z,2.17
2023-03-17T11:06:54.002Z,2.53
2023-03-17T11:09:22.427Z,1.90
2023-03-17T11:11:51.760Z,2.70
2023-03-17T11:14:21.033Z,1.80
2023-03-17T11:16:54.374Z,2.23
2023-03-17T11:19:27.148Z,2.20
2023-03-17T11:22:02.633Z,1.97
2023-03-17T11:24:33.484Z,2.37
2023-03-17T11:27:02.762Z,2.00
2023-03-17T11:29:37.366Z,2.00
2023-03-17T11:32:15.308Z,2.40
2023-03-17T11:34:52.099Z,2.20
2023-03-17T11:37:29.198Z,2.00
2023-03-17T11:40:02.148Z,1.63
2023-03-17T11:42:33.734Z,1.90
2023-03-17T11:45:14.552Z,1.80
2023-03-17T11:47:45.956Z,2.33
2023-03-17T11:50:20.433Z,2.03
2023-03-17T11:52:56.330Z,2.20
2023-03-17T11:55:27.033Z,2.07
2023-03-17T11:57:57.866Z,2.10
2023-03-17T12:00:27.657Z,2.07
2023-03-17T12:02:58.691Z,1.77
2023-03-17T12:05:27.735Z,1.83
2023-03-17T12:07:59.454Z,2.10
2023-03-17T12:10:33.989Z,1.63
2023-03-17T12:13:04.862Z,1.80
2023-03-17T12:15:36.238Z,2.10
2023-03-17T12:18:12.287Z,2.13
2023-03-17T12:20:46.561Z,1.80
2023-03-17T12:23:18.965Z,2.20
2023-03-17T12:25:51.135Z,1.63
2023-03-17T12:28:22.932Z,2.03
2023-03-17T12:30:54.410Z,3.00
2023-03-17T12:33:25.405Z,1.97
2023-03-17T12:35:53.751Z,1.73
2023-03-17T12:38:27.335Z,1.80
2023-03-17T12:41:03.081Z,1.80
2023-03-17T12:43:37.199Z,1.97
2023-03-17T12:46:16.989Z,1.80
2023-03-17T12:48:54.995Z,2.33
2023-03-17T12:51:32.209Z,1.70
2023-03-17T12:54:01.856Z,2.00
2023-03-17T12:56:31.487Z,1.93
2023-03-17T12:59:01.882Z,2.43
2023-03-17T13:01:33.169Z,2.70
2023-03-17T13:04:07.039Z,2.03
2023-03-17T13:06:39.514Z,1.60
2023-03-17T13:09:26.615Z,1.60
2023-03-17T13:11:56.271Z,1.50
2023-03-17T13:14:28.306Z,2.20
2023-03-17T13:17:05.728Z,1.60
2023-03-17T13:19:34.626Z,2.23
2023-03-17T13:22:25.843Z,2.13
2023-03-17T13:24:54.802Z,2.27
2023-03-17T13:27:42.164Z,1.87
2023-03-17T13:30:37.707Z,1.80
2023-03-17T13:33:23.188Z,2.13
2023-03-17T13:36:12.208Z,1.90
2023-03-17T13:39:18.252Z,2.10
2023-03-17T13:42:17.766Z,1.97
2023-03-17T13:44:52.576Z,1.70
2023-03-17T13:47:34.704Z,1.53
2023-03-17T13:50:05.941Z,1.50
2023-03-17T13:52:35.172Z,1.77
2023-03-17T13:55:06.673Z,1.90
2023-03-17T13:57:37.490Z,1.97
2023-03-17T14:00:16.973Z,1.73
2023-03-17T14:02:45.826Z,2.20
2023-03-17T14:05:22.406Z,2.10
2023-03-17T14:07:52.884Z,1.70
2023-03-17T14:10:22.223Z,1.77
2023-03-17T14:12:52.359Z,1.83
2023-03-17T14:15:23.370Z,1.70
2023-03-17T14:17:53.237Z,1.73
2023-03-17T14:20:25.390Z,3.20
2023-03-17T14:22:56.162Z,2.30
2023-03-17T14:25:25.407Z,1.63
2023-03-17T14:27:54.995Z,2.67
2023-03-17T14:30:24.526Z,2.40
2023-03-17T14:33:01.875Z,1.77
2023-03-17T14:35:35.166Z,2.10
2023-03-17T14:38:04.212Z,2.37
2023-03-17T14:40:36.989Z,1.77
2023-03-17T14:43:08.817Z,2.20
2023-03-17T14:45:44.799Z,1.87
2023-03-17T14:48:14.784Z,2.13
2023-03-17T14:50:51.427Z,1.80
2023-03-17T14:53:20.398Z,2.17
2023-03-17T14:55:49.132Z,1.80
2023-03-17T14:58:22.827Z,2.00
2023-03-17T15:00:56.155Z,2.23
2023-03-17T15:03:25.508Z,1.90
2023-03-17T15:06:04.537Z,2.33
2023-03-17T15:08:46.878Z,2.70
2023-03-17T15:11:20.448Z,2.63
2023-03-17T15:13:49.746Z,2.77
2023-03-17T15:16:19.892Z,2.67
2023-03-17T15:18:48.491Z,2.60
2023-03-17T15:21:29.638Z,2.40
2023-03-17T15:23:57.841Z,2.30
2023-03-17T15:26:32.174Z,2.30
2023-03-17T15:29:00.831Z,2.40
2023-03-17T15:31:30.576Z,2.13
2023-03-17T15:33:59.763Z,2.43
2023-03-17T15:36:33.023Z,2.47
2023-03-17T15:39:01.751Z,2.10
2023-03-17T15:41:29.976Z,2.60
2023-03-17T15:43:58.193Z,2.40
2023-03-17T15:46:27.352Z,2.57
2023-03-17T15:48:55.854Z,2.80
2023-03-17T15:51:24.293Z,2.97
2023-03-17T15:53:54.033Z,2.20
2023-03-17T15:56:23.123Z,2.63
2023-03-17T15:58:54.628Z,2.20
2023-03-17T16:01:23.514Z,2.53
2023-03-17T16:03:52.907Z,2.20
2023-03-17T16:06:22.407Z,2.70
2023-03-17T16:08:51.117Z,2.77
2023-03-17T16:11:27.837Z,2.63
2023-03-17T16:13:56.288Z,3.23
2023-03-17T16:16:29.052Z,3.03
2023-03-17T16:18:57.926Z,2.53
2023-03-17T16:21:26.373Z,2.47
2023-03-17T16:23:54.598Z,2.87
2023-03-17T16:26:24.353Z,2.33
2023-03-17T16:28:52.805Z,2.30
2023-03-17T16:31:23.092Z,1.97
2023-03-17T16:33:52.669Z,1.80
2023-03-17T16:36:21.848Z,2.40
2023-03-17T16:38:50.177Z,2.13
2023-03-17T16:41:20.341Z,3.27
2023-03-17T16:43:52.016Z,2.37
2023-03-17T16:46:21.851Z,2.50
2023-03-17T16:48:50.912Z,2.50
2023-03-17T16:51:19.449Z,2.40
2023-03-17T16:53:48.004Z,2.50
2023-03-17T16:56:17.906Z,2.20
2023-03-17T16:58:46.827Z,2.77
2023-03-17T17:01:18.114Z,2.07
2023-03-17T17:03:46.400Z,2.50
2023-03-17T17:06:15.314Z,3.13
2023-03-17T17:08:44.385Z,2.70
2023-03-17T17:11:13.966Z,2.70
2023-03-17T17:13:42.262Z,2.57
2023-03-17T17:16:18.330Z,2.40
2023-03-17T17:18:48.309Z,3.53
2023-03-17T17:21:16.632Z,2.20
2023-03-17T17:23:44.850Z,2.50
2023-03-17T17:26:13.169Z,2.67
2023-03-17T17:28:41.457Z,2.00
2023-03-17T17:31:10.178Z,2.03
2023-03-17T17:33:38.947Z,2.47
2023-03-17T17:36:13.232Z,2.50
2023-03-17T17:38:41.425Z,2.70
2023-03-17T17:41:11.115Z,2.60
2023-03-17T17:43:42.760Z,2.47
2023-03-17T17:46:16.302Z,2.63
2023-03-17T17:48:44.568Z,2.77
2023-03-17T17:51:14.262Z,3.70
2023-03-17T17:53:42.549Z,3.20
2023-03-17T17:56:14.710Z,2.90
2023-03-17T17:58:43.258Z,2.87
2023-03-17T18:01:13.052Z,2.27
2023-03-17T18:03:42.992Z,2.63
2023-03-17T18:06:11.633Z,3.30
2023-03-17T18:08:41.645Z,3.07
2023-03-17T18:11:10.039Z,2.80
2023-03-17T18:13:39.005Z,3.23
2023-03-17T18:16:09.811Z,2.67
2023-03-17T18:18:40.669Z,3.00
2023-03-17T18:21:09.056Z,2.53
2023-03-17T18:23:37.313Z,2.63
2023-03-17T18:26:07.404Z,3.00
2023-03-17T18:28:35.989Z,3.10
2023-03-17T18:31:09.558Z,3.70
2023-03-17T18:33:38.374Z,4.80
2023-03-17T18:36:07.064Z,4.63
2023-03-17T18:38:35.668Z,3.60
2023-03-17T18:41:04.359Z,2.83
2023-03-17T18:43:34.060Z,2.40
2023-03-17T18:46:02.407Z,3.00
2023-03-17T18:48:30.903Z,2.30
2023-03-17T18:50:59.126Z,2.70
2023-03-17T18:53:27.723Z,2.80
2023-03-17T18:55:55.903Z,2.70
2023-03-17T18:58:24.334Z,2.80
2023-03-17T19:00:54.255Z,3.20
2023-03-17T19:03:22.583Z,2.97
2023-03-17T19:05:51.504Z,4.23
2023-03-17T19:08:19.751Z,3.13
2023-03-17T19:10:48.346Z,2.93
2023-03-17T19:13:17.018Z,2.67
2023-03-17T19:15:46.098Z,2.90
2023-03-17T19:18:16.074Z,3.00
2023-03-17T19:20:44.282Z,2.37
2023-03-17T19:23:12.507Z,2.63
2023-03-17T19:25:41.105Z,3.10
2023-03-17T19:28:09.317Z,3.10
2023-03-17T19:30:37.568Z,2.13
2023-03-17T19:33:07.691Z,3.10
2023-03-17T19:35:37.296Z,2.50
2023-03-17T19:38:06.156Z,2.67
2023-03-17T19:40:34.448Z,2.33
2023-03-17T19:43:02.642Z,2.70
2023-03-17T19:45:30.969Z,2.57
2023-03-17T19:47:59.377Z,2.50
2023-03-17T19:50:27.984Z,2.57
2023-03-17T19:52:57.499Z,2.90
2023-03-17T19:55:26.203Z,2.47
2023-03-17T19:57:54.972Z,2.00
2023-03-17T20:00:23.804Z,2.80
2023-03-17T20:02:52.045Z,2.43
2023-03-17T20:05:20.635Z,2.63
2023-03-17T20:07:49.065Z,2.77
2023-03-17T20:10:18.877Z,2.63
2023-03-17T20:12:47.339Z,3.63
2023-03-17T20:15:16.530Z,2.60
2023-03-17T20:17:44.940Z,2.73
2023-03-17T20:20:14.600Z,2.43
2023-03-17T20:22:43.683Z,3.10
2023-03-17T20:25:12.273Z,3.00
2023-03-17T20:27:41.802Z,1.90
2023-03-17T20:30:12.141Z,3.10
2023-03-17T20:32:40.600Z,2.80
2023-03-17T20:35:09.248Z,2.90
2023-03-17T20:37:38.642Z,3.10
2023-03-17T20:40:09.837Z,3.37
2023-03-17T20:42:38.267Z,2.57
2023-03-17T20:45:08.801Z,2.83
2023-03-17T20:47:37.440Z,2.40
2023-03-17T20:50:06.544Z,2.80
2023-03-17T20:52:35.580Z,2.50
2023-03-17T20:55:05.834Z,3.30
2023-03-17T20:57:34.178Z,3.03
2023-03-17T21:00:02.611Z,2.70
2023-03-17T21:02:32.245Z,2.80
2023-03-17T21:05:00.694Z,3.23
2023-03-17T21:07:28.974Z,4.33
2023-03-17T21:09:57.376Z,3.87
2023-03-17T21:12:26.165Z,3.63
2023-03-17T21:14:54.468Z,3.47
2023-03-17T21:17:22.844Z,3.17
2023-03-17T21:19:54.004Z,3.37
2023-03-17T21:22:22.514Z,3.60
2023-03-17T21:24:51.315Z,2.63
2023-03-17T21:27:20.039Z,2.90
2023-03-17T21:29:48.598Z,3.80
2023-03-17T21:32:16.887Z,3.03
2023-03-17T21:34:45.094Z,3.30
2023-03-17T21:37:16.000Z,3.07
2023-03-17T21:39:44.623Z,4.30
2023-03-17T21:42:13.635Z,3.47
2023-03-17T21:44:42.042Z,3.00
2023-03-17T21:47:10.223Z,3.20
2023-03-17T21:49:38.438Z,3.50
2023-03-17T21:52:07.254Z,3.13
2023-03-17T21:54:36.843Z,3.23
2023-03-17T21:57:05.267Z,3.10
2023-03-17T21:59:35.612Z,4.13
2023-03-17T22:02:04.032Z,3.77
2023-03-17T22:04:32.271Z,2.90
2023-03-17T22:07:00.711Z,4.20
2023-03-17T22:09:29.225Z,3.40
2023-03-17T22:11:59.166Z,3.50
2023-03-17T22:14:27.418Z,3.97
2023-03-17T22:16:56.240Z,3.23
2023-03-17T22:19:24.844Z,3.80
2023-03-17T22:21:53.086Z,3.33
2023-03-17T22:24:21.453Z,4.07
2023-03-17T22:26:50.006Z,4.20
2023-03-17T22:29:20.015Z,4.17
2023-03-17T22:31:48.305Z,3.97
2023-03-17T22:34:17.314Z,3.93
2023-03-17T22:36:45.525Z,3.63
2023-03-17T22:39:14.229Z,4.20
2023-03-17T22:41:42.498Z,3.93
2023-03-17T22:44:11.316Z,4.30
2023-03-17T22:46:41.419Z,4.27
2023-03-17T22:49:10.009Z,3.77
2023-03-17T22:51:38.376Z,4.13
2023-03-17T22:54:06.624Z,4.03
2023-03-17T22:56:34.875Z,4.40
2023-03-17T22:59:03.071Z,4.40
2023-03-17T23:01:31.815Z,4.97
2023-03-17T23:04:01.995Z,4.43
2023-03-17T23:06:30.371Z,4.33
2023-03-17T23:08:58.665Z,4.20
2023-03-17T23:11:28.016Z,5.57
2023-03-17T23:13:56.640Z,4.43
2023-03-17T23:16:24.901Z,3.80
2023-03-17T23:18:54.816Z,4.67
2023-03-17T23:21:27.613Z,4.83
2023-03-17T23:23:55.955Z,4.10
2023-03-17T23:26:24.564Z,3.83
2023-03-17T23:28:53.178Z,4.90
2023-03-17T23:31:22.514Z,4.60
2023-03-17T23:33:51.910Z,3.80
2023-03-17T23:36:21.247Z,4.70
2023-03-17T23:38:52.230Z,4.07
2023-03-17T23:41:20.491Z,5.03
2023-03-17T23:43:49.089Z,3.77
2023-03-17T23:46:17.655Z,4.20
2023-03-17T23:48:46.111Z,3.80
2023-03-17T23:51:14.918Z,5.13
2023-03-17T23:53:43.396Z,4.90
2023-03-17T23:56:13.160Z,4.53
2023-03-17T23:58:42.332Z,4.33
